Terminal Aerodrome Forecast
Issued by NWS

Home | Current Version | Previous Version | Text Only | Print | Product List | Glossary On
Versions: 1 2 3 4 5 6 7 8 9 10 11 12 13
000
FTUS46 KSGX 291700
TAFONT
TAF
KONT 291731Z 2918/3024 VRB04KT P6SM FEW150 SCT250
     FM292100 26012KT P6SM FEW080 SCT200
     FM300400 VRB04KT P6SM SCT250
     FM302100 26012KT P6SM SCT250=

USA.gov is the U.S. government's official web portal to all federal, state and local government web resources and services.